Time;durP1;ratioP1;P1;durP2;ratioP2;P2;SDS_P1;SDS_P2;PMS_P1;PMS_P2;Temp;Humidity;BMP_temperature;BMP_pressure;BME280_temperature;BME280_humidity;BME280_pressure;Samples;Min_cycle;Max_cycle;Signal;HPM_P1;HPM_P2
2023/06/15 00:04:00;;;;;;;;;;;9.20;99.90;;;;;;8328013;28;19913;-76
2023/06/15 00:08:00;;;;;;;;;;;9.20;99.90;;;;;;8331177;28;19913;-74
2023/06/15 00:12:01;;;;;;;;;;;9.20;99.90;;;;;;8337615;28;20444;-76
2023/06/15 00:16:01;;;;;;;;;;;9.20;99.90;;;;;;8327673;28;19983;-76
2023/06/15 00:20:04;;;;;;;;;;;9.30;99.90;;;;;;8330538;28;20384;-76
2023/06/15 00:24:04;;;;;;;;;;;9.30;99.90;;;;;;8328566;28;20000;-77
2023/06/15 00:28:05;;;;;;;;;;;8.90;99.90;;;;;;8336208;28;19909;-76
2023/06/15 00:32:06;;;;;;;;;;;8.70;99.90;;;;;;8335567;28;19970;-76
2023/06/15 00:36:10;;;;;;;;;;;8.70;99.90;;;;;;8335663;28;19928;-76
2023/06/15 00:40:11;;;;;;;;;;;8.70;99.90;;;;;;8354224;28;19916;-76
2023/06/15 00:44:12;;;;;;;;;;;8.50;99.90;;;;;;8353280;28;19927;-76
2023/06/15 00:48:13;;;;;;;;;;;8.30;99.90;;;;;;8333923;28;19947;-77
2023/06/15 00:52:15;;;;;;;;;;;8.20;99.90;;;;;;8338434;28;19916;-76
2023/06/15 00:56:17;;;;;;;;;;;8.20;99.90;;;;;;8350975;28;20007;-76
2023/06/15 01:00:18;;;;;;;;;;;8.20;99.90;;;;;;8325659;28;19912;-77
2023/06/15 01:04:18;;;;;;;;;;;8.00;99.90;;;;;;8327537;28;19917;-77
2023/06/15 01:08:20;;;;;;;;;;;8.00;99.90;;;;;;8328886;28;19919;-76
2023/06/15 01:12:21;;;;;;;;;;;7.80;99.90;;;;;;8353457;28;19913;-76
2023/06/15 01:16:26;;;;;;;;;;;7.70;99.90;;;;;;8329775;28;20348;-75
2023/06/15 01:20:32;;;;;;;;;;;7.60;99.90;;;;;;8316869;28;19916;-76
2023/06/15 01:24:36;;;;;;;;;;;7.70;99.90;;;;;;8334855;28;19962;-76
2023/06/15 01:28:41;;;;;;;;;;;7.60;99.90;;;;;;8327716;28;19909;-76
2023/06/15 01:32:42;;;;;;;;;;;8.10;99.90;;;;;;8327719;28;20145;-78
2023/06/15 01:36:43;;;;;;;;;;;8.40;99.90;;;;;;8334751;28;19913;-79
2023/06/15 01:40:48;;;;;;;;;;;8.30;99.90;;;;;;8334934;28;20419;-79
2023/06/15 01:44:50;;;;;;;;;;;8.20;99.90;;;;;;8321414;28;20370;-78
2023/06/15 01:48:51;;;;;;;;;;;8.00;99.90;;;;;;8335158;28;19909;-78
2023/06/15 01:52:51;;;;;;;;;;;7.60;99.90;;;;;;8352844;28;19917;-78
2023/06/15 01:56:52;;;;;;;;;;;7.60;99.90;;;;;;8351724;28;19971;-78
2023/06/15 02:00:52;;;;;;;;;;;7.40;99.90;;;;;;8346812;28;19909;-78
2023/06/15 02:04:53;;;;;;;;;;;7.30;99.90;;;;;;8353606;28;19916;-78
2023/06/15 02:08:53;;;;;;;;;;;7.10;99.90;;;;;;8345869;28;19913;-78
2023/06/15 02:12:54;;;;;;;;;;;7.10;99.90;;;;;;8334147;28;19963;-77
2023/06/15 02:16:56;;;;;;;;;;;7.10;99.90;;;;;;8348016;28;20407;-79
2023/06/15 02:20:57;;;;;;;;;;;7.00;99.90;;;;;;8340923;28;20003;-78
2023/06/15 02:24:57;;;;;;;;;;;7.00;99.90;;;;;;8331017;28;19916;-77
2023/06/15 02:28:57;;;;;;;;;;;7.00;99.90;;;;;;8345434;28;19916;-78
2023/06/15 02:33:00;;;;;;;;;;;7.10;99.90;;;;;;8350746;28;20301;-79
2023/06/15 02:37:00;;;;;;;;;;;7.10;99.90;;;;;;8333353;28;20040;-78
2023/06/15 02:41:01;;;;;;;;;;;7.10;99.90;;;;;;8351155;28;19909;-78
2023/06/15 02:45:02;;;;;;;;;;;7.00;99.90;;;;;;8352668;28;19963;-78
2023/06/15 02:49:03;;;;;;;;;;;6.90;99.90;;;;;;8347644;28;20373;-79
2023/06/15 02:53:03;;;;;;;;;;;6.80;99.90;;;;;;8337205;28;19925;-78
2023/06/15 02:57:07;;;;;;;;;;;6.70;99.90;;;;;;8354998;28;19951;-78
2023/06/15 03:01:08;;;;;;;;;;;6.70;99.90;;;;;;8336015;28;20290;-78
2023/06/15 03:05:09;;;;;;;;;;;6.70;99.90;;;;;;8346536;28;19943;-78
2023/06/15 03:09:11;;;;;;;;;;;6.70;99.90;;;;;;8339694;28;20776;-78
2023/06/15 03:13:12;;;;;;;;;;;6.60;99.90;;;;;;8326947;28;19988;-78
2023/06/15 03:17:12;;;;;;;;;;;6.50;99.90;;;;;;8351021;28;20404;-78
2023/06/15 03:21:14;;;;;;;;;;;6.50;99.90;;;;;;8338724;28;19912;-78
2023/06/15 03:25:14;;;;;;;;;;;7.20;99.90;;;;;;8344583;28;20388;-78
2023/06/15 03:29:15;;;;;;;;;;;6.70;99.90;;;;;;8339175;28;19916;-78
2023/06/15 03:33:16;;;;;;;;;;;6.60;99.90;;;;;;8325552;28;19916;-78
2023/06/15 03:37:17;;;;;;;;;;;6.60;99.90;;;;;;8331314;28;20004;-78
2023/06/15 03:41:17;;;;;;;;;;;6.50;99.90;;;;;;8356191;28;19920;-78
2023/06/15 03:45:18;;;;;;;;;;;6.40;99.90;;;;;;8337874;28;19964;-78
2023/06/15 03:49:18;;;;;;;;;;;6.60;99.90;;;;;;8356435;28;20336;-78
2023/06/15 03:53:18;;;;;;;;;;;6.80;99.90;;;;;;8337698;28;19928;-78
2023/06/15 03:57:19;;;;;;;;;;;7.00;99.90;;;;;;8356253;28;19913;-78
2023/06/15 04:01:22;;;;;;;;;;;7.30;99.90;;;;;;8333400;28;19913;-78
2023/06/15 04:05:22;;;;;;;;;;;7.80;99.90;;;;;;8320463;28;20455;-77
2023/06/15 04:09:23;;;;;;;;;;;8.60;99.90;;;;;;8354076;28;19908;-78
2023/06/15 04:13:24;;;;;;;;;;;9.00;99.90;;;;;;8337295;28;19917;-78
2023/06/15 04:17:25;;;;;;;;;;;9.60;99.90;;;;;;8337405;28;20020;-76
2023/06/15 04:21:25;;;;;;;;;;;10.10;99.90;;;;;;8334988;28;19921;-76
2023/06/15 04:25:27;;;;;;;;;;;10.70;99.90;;;;;;8332664;28;19913;-76
2023/06/15 04:29:30;;;;;;;;;;;11.50;99.90;;;;;;8345477;28;19923;-76
2023/06/15 04:33:32;;;;;;;;;;;12.30;99.90;;;;;;8329339;28;19927;-76
2023/06/15 04:37:32;;;;;;;;;;;12.70;99.90;;;;;;8330222;28;20382;-76
2023/06/15 04:41:35;;;;;;;;;;;13.20;99.90;;;;;;8333689;28;19920;-76
2023/06/15 04:45:35;;;;;;;;;;;14.10;99.90;;;;;;8335924;28;20511;-81
2023/06/15 04:49:36;;;;;;;;;;;14.30;99.90;;;;;;8334616;28;19983;-82
2023/06/15 04:53:36;;;;;;;;;;;14.80;99.90;;;;;;8335344;28;19923;-82
2023/06/15 04:57:37;;;;;;;;;;;15.50;99.90;;;;;;8341750;28;19920;-82
2023/06/15 05:01:37;;;;;;;;;;;16.10;99.90;;;;;;8331508;28;19960;-80
2023/06/15 05:05:38;;;;;;;;;;;15.90;99.90;;;;;;8336276;28;19917;-82
2023/06/15 05:09:38;;;;;;;;;;;16.80;99.90;;;;;;8331397;28;19999;-83
2023/06/15 05:13:39;;;;;;;;;;;16.80;99.90;;;;;;8329561;28;20297;-80
2023/06/15 05:17:39;;;;;;;;;;;17.10;99.90;;;;;;8337678;28;19970;-81
2023/06/15 05:21:40;;;;;;;;;;;18.20;99.90;;;;;;8334454;28;20418;-81
2023/06/15 05:25:40;;;;;;;;;;;18.80;99.90;;;;;;8342370;28;19917;-81
2023/06/15 05:29:41;;;;;;;;;;;19.00;99.90;;;;;;8327089;28;19917;-80
2023/06/15 05:33:41;;;;;;;;;;;19.20;99.90;;;;;;8321287;28;19933;-82
2023/06/15 05:37:41;;;;;;;;;;;19.40;99.90;;;;;;8339198;28;19967;-82
2023/06/15 05:41:42;;;;;;;;;;;20.40;99.90;;;;;;8336712;28;19971;-81
2023/06/15 05:45:42;;;;;;;;;;;20.50;99.90;;;;;;8334480;28;20137;-81
2023/06/15 05:49:43;;;;;;;;;;;21.30;99.90;;;;;;8335643;28;19920;-82
2023/06/15 05:53:43;;;;;;;;;;;21.50;99.90;;;;;;8327784;28;19917;-83
2023/06/15 05:57:44;;;;;;;;;;;21.30;99.90;;;;;;8359663;28;20003;-81
2023/06/15 06:01:44;;;;;;;;;;;21.40;99.90;;;;;;8334227;28;19919;-81
2023/06/15 06:05:45;;;;;;;;;;;21.30;99.90;;;;;;8333722;28;19913;-81
2023/06/15 06:09:45;;;;;;;;;;;21.80;99.90;;;;;;8335741;28;19912;-81
2023/06/15 06:13:46;;;;;;;;;;;22.60;99.90;;;;;;8335067;28;19917;-83
2023/06/15 06:17:46;;;;;;;;;;;22.80;99.90;;;;;;8328215;28;19990;-80
2023/06/15 06:21:47;;;;;;;;;;;23.20;99.90;;;;;;8350213;28;19957;-77
2023/06/15 06:25:47;;;;;;;;;;;23.60;98.20;;;;;;8321523;28;19963;-76
2023/06/15 06:29:48;;;;;;;;;;;23.80;96.70;;;;;;8336297;28;19944;-76
2023/06/15 06:33:48;;;;;;;;;;;23.80;97.20;;;;;;8348611;28;19912;-77
2023/06/15 06:37:49;;;;;;;;;;;24.00;97.20;;;;;;8332277;28;19935;-77
2023/06/15 06:41:49;;;;;;;;;;;24.60;95.40;;;;;;8342183;28;19909;-77
2023/06/15 06:45:50;;;;;;;;;;;24.40;97.10;;;;;;8328217;28;20447;-76
2023/06/15 06:49:52;;;;;;;;;;;24.20;95.90;;;;;;8325933;28;19909;-77
2023/06/15 06:53:53;;;;;;;;;;;23.70;94.50;;;;;;8316604;28;19925;-76
2023/06/15 06:57:53;;;;;;;;;;;23.80;94.50;;;;;;8350295;28;20352;-77
2023/06/15 07:01:54;;;;;;;;;;;23.90;93.70;;;;;;8320660;28;20438;-76
2023/06/15 07:05:55;;;;;;;;;;;24.40;94.70;;;;;;8339384;28;19996;-78
2023/06/15 07:09:55;;;;;;;;;;;24.70;91.80;;;;;;8346138;28;20369;-77
2023/06/15 07:13:55;;;;;;;;;;;25.20;93.20;;;;;;8325531;28;19913;-76
2023/06/15 07:17:56;;;;;;;;;;;24.90;90.80;;;;;;8338899;28;20004;-77
2023/06/15 07:21:56;;;;;;;;;;;24.40;92.30;;;;;;8349256;28;19916;-76
2023/06/15 07:25:58;;;;;;;;;;;24.30;91.60;;;;;;8329864;28;19925;-76
2023/06/15 07:29:58;;;;;;;;;;;24.60;90.70;;;;;;8318937;28;19950;-77
2023/06/15 07:33:59;;;;;;;;;;;24.30;92.40;;;;;;8326845;28;19913;-77
2023/06/15 07:37:59;;;;;;;;;;;24.40;92.00;;;;;;8322249;28;20282;-77
2023/06/15 07:42:00;;;;;;;;;;;24.10;91.40;;;;;;8326333;28;19921;-76
2023/06/15 07:46:01;;;;;;;;;;;23.70;92.00;;;;;;8344315;28;19914;-76
2023/06/15 07:50:01;;;;;;;;;;;23.70;94.00;;;;;;8327383;28;19913;-77
2023/06/15 07:54:02;;;;;;;;;;;23.60;91.80;;;;;;8371181;28;20015;-77
2023/06/15 07:58:02;;;;;;;;;;;23.70;92.80;;;;;;8351603;28;19928;-75
2023/06/15 08:02:03;;;;;;;;;;;23.70;90.80;;;;;;8337195;28;20000;-77
2023/06/15 08:06:03;;;;;;;;;;;24.10;91.60;;;;;;8338743;28;19913;-76
2023/06/15 08:10:04;;;;;;;;;;;24.30;91.30;;;;;;8350728;28;19909;-76
2023/06/15 08:14:05;;;;;;;;;;;24.70;88.20;;;;;;8339410;28;19975;-77
2023/06/15 08:18:05;;;;;;;;;;;24.80;88.50;;;;;;8354037;28;19944;-76
2023/06/15 08:22:06;;;;;;;;;;;24.90;88.80;;;;;;8339613;28;19954;-77
2023/06/15 08:26:06;;;;;;;;;;;24.50;88.60;;;;;;8356304;28;19916;-77
2023/06/15 08:30:07;;;;;;;;;;;24.20;89.30;;;;;;8337009;28;19909;-77
2023/06/15 08:34:08;;;;;;;;;;;23.90;91.40;;;;;;8348959;28;19913;-75
2023/06/15 08:38:08;;;;;;;;;;;24.10;90.20;;;;;;8338255;28;20482;-77
2023/06/15 08:42:09;;;;;;;;;;;24.30;89.30;;;;;;8333776;28;20547;-77
2023/06/15 08:46:10;;;;;;;;;;;24.60;85.10;;;;;;8338697;28;20503;-77
2023/06/15 08:50:11;;;;;;;;;;;24.60;86.90;;;;;;8332750;28;20507;-76
2023/06/15 08:54:11;;;;;;;;;;;24.50;89.10;;;;;;8330373;28;20003;-77
2023/06/15 08:58:12;;;;;;;;;;;24.10;88.60;;;;;;8336195;28;20011;-77
2023/06/15 09:02:17;;;;;;;;;;;24.30;87.30;;;;;;8349031;28;19916;-77
2023/06/15 09:06:18;;;;;;;;;;;24.40;88.40;;;;;;8333325;28;20642;-75
2023/06/15 09:10:20;;;;;;;;;;;24.30;87.30;;;;;;8340217;28;19960;-77
2023/06/15 09:14:20;;;;;;;;;;;24.30;87.90;;;;;;8330861;28;19917;-77
2023/06/15 09:18:21;;;;;;;;;;;24.80;85.90;;;;;;8345127;28;22303;-76
2023/06/15 09:22:22;;;;;;;;;;;25.10;84.90;;;;;;8333361;28;19959;-77
2023/06/15 09:26:23;;;;;;;;;;;25.10;84.50;;;;;;8355724;28;19916;-77
2023/06/15 09:30:31;;;;;;;;;;;25.90;76.50;;;;;;8351349;28;20318;-75
2023/06/15 09:34:32;;;;;;;;;;;24.70;77.00;;;;;;8346720;28;20365;-76
2023/06/15 09:38:40;;;;;;;;;;;23.60;78.30;;;;;;8334643;28;19920;-76
2023/06/15 09:42:41;;;;;;;;;;;23.20;77.20;;;;;;8331224;28;19909;-76
2023/06/15 09:46:41;;;;;;;;;;;24.10;74.10;;;;;;8326176;28;19944;-76
2023/06/15 09:50:42;;;;;;;;;;;25.80;70.00;;;;;;8355852;28;19950;-77
2023/06/15 09:54:43;;;;;;;;;;;25.80;69.20;;;;;;8334222;28;20385;-77
2023/06/15 09:58:44;;;;;;;;;;;26.00;68.30;;;;;;8337328;28;19913;-76
2023/06/15 10:02:45;;;;;;;;;;;25.40;68.40;;;;;;8333916;28;19915;-76
2023/06/15 10:06:49;;;;;;;;;;;25.40;69.00;;;;;;8342412;28;19916;-77
2023/06/15 10:10:50;;;;;;;;;;;25.10;73.00;;;;;;8315077;28;19913;-76
2023/06/15 10:14:51;;;;;;;;;;;24.00;73.20;;;;;;8322271;28;19917;-77
2023/06/15 10:18:57;;;;;;;;;;;24.60;71.40;;;;;;8341450;28;19984;-77
2023/06/15 10:23:09;;;;;;;;;;;24.70;71.20;;;;;;8353999;28;20300;-77
2023/06/15 10:27:10;;;;;;;;;;;24.20;68.10;;;;;;8354970;28;19948;-77
2023/06/15 10:31:18;;;;;;;;;;;23.80;72.80;;;;;;8340486;28;19913;-77
2023/06/15 10:35:25;;;;;;;;;;;23.70;70.20;;;;;;8335995;28;19943;-76
2023/06/15 10:39:33;;;;;;;;;;;24.10;69.40;;;;;;8320307;28;19916;-77
2023/06/15 10:43:34;;;;;;;;;;;25.50;72.20;;;;;;8339098;28;19912;-77
2023/06/15 10:47:47;;;;;;;;;;;25.50;65.70;;;;;;8340442;28;19924;-79
2023/06/15 10:51:53;;;;;;;;;;;24.80;68.50;;;;;;8330406;28;19948;-78
2023/06/15 10:55:54;;;;;;;;;;;23.90;71.80;;;;;;8334685;28;19924;-76
2023/06/15 10:59:56;;;;;;;;;;;23.10;73.60;;;;;;8334498;28;19913;-77
2023/06/15 11:03:57;;;;;;;;;;;22.90;76.20;;;;;;8337831;28;19917;-76
2023/06/15 11:07:59;;;;;;;;;;;22.80;77.70;;;;;;8329967;28;19913;-76
2023/06/15 11:12:00;;;;;;;;;;;22.70;75.30;;;;;;8314788;28;19979;-77
2023/06/15 11:16:10;;;;;;;;;;;22.80;77.60;;;;;;8329807;28;19972;-76
2023/06/15 11:20:32;;;;;;;;;;;22.80;74.20;;;;;;8331536;28;19908;-76
2023/06/15 11:24:36;;;;;;;;;;;22.70;72.00;;;;;;8326842;28;19913;-76
2023/06/15 11:28:41;;;;;;;;;;;25.70;77.30;;;;;;8338830;28;19909;-76
2023/06/15 11:32:43;;;;;;;;;;;27.40;59.40;;;;;;8332252;28;19912;-76
2023/06/15 11:36:44;;;;;;;;;;;26.60;59.60;;;;;;8343238;28;19915;-77
2023/06/15 11:40:47;;;;;;;;;;;26.50;64.30;;;;;;8357014;28;19909;-76
2023/06/15 11:44:49;;;;;;;;;;;29.20;63.30;;;;;;8338687;28;19939;-76
2023/06/15 11:48:54;;;;;;;;;;;30.70;57.20;;;;;;8326971;28;19963;-76
2023/06/15 11:52:55;;;;;;;;;;;31.90;55.10;;;;;;8351246;28;19913;-77
2023/06/15 11:56:57;;;;;;;;;;;32.60;49.70;;;;;;8331355;28;20285;-77
2023/06/15 12:00:57;;;;;;;;;;;31.80;50.30;;;;;;8356613;28;19931;-77
2023/06/15 12:04:58;;;;;;;;;;;32.50;47.00;;;;;;8328932;28;19917;-77
2023/06/15 12:08:59;;;;;;;;;;;33.10;47.10;;;;;;8354897;28;20398;-77
2023/06/15 12:12:59;;;;;;;;;;;34.00;45.90;;;;;;8350323;28;19913;-78
2023/06/15 12:17:00;;;;;;;;;;;33.20;44.80;;;;;;8327291;28;19923;-77
2023/06/15 12:21:01;;;;;;;;;;;33.60;45.60;;;;;;8331418;28;19909;-76
2023/06/15 12:25:03;;;;;;;;;;;32.10;44.20;;;;;;8354798;28;19967;-76
2023/06/15 12:29:14;;;;;;;;;;;29.10;50.40;;;;;;8336756;28;19913;-76
2023/06/15 12:33:27;;;;;;;;;;;27.00;55.50;;;;;;8353571;28;19912;-76
2023/06/15 12:37:30;;;;;;;;;;;25.70;57.80;;;;;;8347772;28;19908;-75
2023/06/15 12:41:30;;;;;;;;;;;25.10;57.40;;;;;;8362606;28;19909;-76
2023/06/15 12:45:34;;;;;;;;;;;25.20;57.70;;;;;;8325553;28;19909;-76
2023/06/15 12:49:35;;;;;;;;;;;25.30;56.70;;;;;;8342245;28;19913;-76
2023/06/15 12:53:37;;;;;;;;;;;25.20;57.80;;;;;;8335449;28;20372;-77
2023/06/15 12:57:37;;;;;;;;;;;25.50;57.40;;;;;;8324901;28;19916;-76
2023/06/15 13:01:38;;;;;;;;;;;25.60;56.90;;;;;;8346888;28;20373;-75
2023/06/15 13:05:40;;;;;;;;;;;25.40;57.50;;;;;;8342263;28;19909;-75
2023/06/15 13:09:40;;;;;;;;;;;25.90;56.80;;;;;;8352010;28;20289;-77
2023/06/15 13:13:41;;;;;;;;;;;28.00;53.50;;;;;;8323044;28;19913;-75
2023/06/15 13:17:41;;;;;;;;;;;28.80;52.20;;;;;;8346962;28;19917;-76
2023/06/15 13:21:42;;;;;;;;;;;28.70;53.70;;;;;;8335771;28;19909;-76
2023/06/15 13:25:42;;;;;;;;;;;30.10;50.40;;;;;;8329053;28;19913;-77
2023/06/15 13:29:43;;;;;;;;;;;31.90;46.90;;;;;;8329928;28;19913;-77
2023/06/15 13:33:43;;;;;;;;;;;32.40;46.70;;;;;;8343964;28;19917;-77
2023/06/15 13:37:44;;;;;;;;;;;34.10;42.60;;;;;;8328080;28;20008;-76
2023/06/15 13:41:44;;;;;;;;;;;30.30;49.10;;;;;;8328822;28;19933;-77
2023/06/15 13:45:45;;;;;;;;;;;30.20;48.20;;;;;;8327639;28;19929;-77
2023/06/15 13:49:46;;;;;;;;;;;30.60;47.40;;;;;;8329208;28;19920;-77
2023/06/15 13:53:47;;;;;;;;;;;29.00;48.80;;;;;;8340680;28;19916;-77
2023/06/15 13:57:47;;;;;;;;;;;29.60;49.00;;;;;;8342067;28;19919;-77
2023/06/15 14:01:48;;;;;;;;;;;33.30;44.60;;;;;;8334666;28;19920;-76
2023/06/15 14:05:48;;;;;;;;;;;32.60;43.60;;;;;;8326072;28;19991;-76
2023/06/15 14:09:49;;;;;;;;;;;31.70;45.30;;;;;;8333402;28;19958;-76
2023/06/15 14:13:50;;;;;;;;;;;29.80;48.30;;;;;;8345148;28;19990;-77
2023/06/15 14:17:51;;;;;;;;;;;29.10;50.20;;;;;;8321146;28;19948;-77
2023/06/15 14:21:52;;;;;;;;;;;29.20;48.90;;;;;;8339062;28;19920;-77
2023/06/15 14:25:52;;;;;;;;;;;32.90;44.80;;;;;;8334124;28;19925;-77
2023/06/15 14:29:52;;;;;;;;;;;35.80;41.60;;;;;;8333512;28;20349;-77
2023/06/15 14:33:53;;;;;;;;;;;35.10;40.80;;;;;;8332373;28;20463;-77
2023/06/15 14:37:53;;;;;;;;;;;35.70;39.70;;;;;;8333573;28;20277;-77
2023/06/15 14:41:54;;;;;;;;;;;35.90;39.80;;;;;;8329605;28;20401;-76
2023/06/15 14:45:54;;;;;;;;;;;32.00;42.40;;;;;;8346122;28;20039;-76
2023/06/15 14:49:55;;;;;;;;;;;31.20;45.00;;;;;;8357353;28;19913;-76
2023/06/15 14:53:55;;;;;;;;;;;30.50;43.60;;;;;;8342849;28;19923;-77
2023/06/15 14:57:56;;;;;;;;;;;29.10;47.00;;;;;;8360781;28;19921;-77
2023/06/15 15:01:56;;;;;;;;;;;29.40;47.60;;;;;;8362398;28;20304;-76
2023/06/15 15:05:57;;;;;;;;;;;29.30;47.40;;;;;;8350036;28;19909;-77
2023/06/15 15:09:58;;;;;;;;;;;28.10;48.40;;;;;;8355579;28;19912;-76
2023/06/15 15:14:00;;;;;;;;;;;27.90;49.40;;;;;;8335783;28;19920;-77
2023/06/15 15:18:01;;;;;;;;;;;29.10;48.40;;;;;;8328787;28;20485;-76
2023/06/15 15:22:01;;;;;;;;;;;27.10;52.60;;;;;;8348157;28;19913;-76
2023/06/15 15:26:02;;;;;;;;;;;25.60;55.50;;;;;;8344605;28;19921;-77
2023/06/15 15:30:03;;;;;;;;;;;25.30;57.10;;;;;;8331272;28;20334;-76
2023/06/15 15:34:03;;;;;;;;;;;26.00;54.90;;;;;;8343569;28;19968;-76
2023/06/15 15:38:03;;;;;;;;;;;27.30;52.60;;;;;;8342570;28;19909;-76
2023/06/15 15:42:07;;;;;;;;;;;27.70;50.10;;;;;;8338792;28;19995;-76
2023/06/15 15:46:08;;;;;;;;;;;27.70;51.80;;;;;;8330532;28;20592;-76
2023/06/15 15:50:09;;;;;;;;;;;27.10;53.10;;;;;;8343333;28;20012;-76
2023/06/15 15:54:11;;;;;;;;;;;27.10;54.10;;;;;;8335114;28;19940;-76
2023/06/15 15:58:11;;;;;;;;;;;26.30;54.20;;;;;;8337828;28;19925;-77
2023/06/15 16:02:11;;;;;;;;;;;25.50;55.70;;;;;;8339726;28;19913;-77
2023/06/15 16:06:12;;;;;;;;;;;25.30;56.80;;;;;;8331082;28;19913;-77
2023/06/15 16:10:13;;;;;;;;;;;25.10;56.60;;;;;;8331877;28;19916;-75
2023/06/15 16:14:13;;;;;;;;;;;24.70;58.10;;;;;;8349297;28;20372;-75
2023/06/15 16:18:13;;;;;;;;;;;24.70;57.20;;;;;;8349995;28;19924;-75
2023/06/15 16:22:14;;;;;;;;;;;24.70;58.80;;;;;;8340342;28;19913;-76
2023/06/15 16:26:14;;;;;;;;;;;24.80;57.80;;;;;;8354733;28;19909;-75
2023/06/15 16:30:15;;;;;;;;;;;24.60;57.80;;;;;;8349152;28;19913;-76
2023/06/15 16:34:15;;;;;;;;;;;24.40;59.80;;;;;;8333582;28;19921;-77
2023/06/15 16:38:16;;;;;;;;;;;24.40;59.70;;;;;;8354781;28;19913;-77
2023/06/15 16:42:17;;;;;;;;;;;24.60;59.00;;;;;;8356548;28;19967;-77
2023/06/15 16:46:18;;;;;;;;;;;24.50;58.40;;;;;;8353171;28;20545;-79
2023/06/15 16:50:18;;;;;;;;;;;24.30;59.30;;;;;;8350018;28;20021;-77
2023/06/15 16:54:19;;;;;;;;;;;24.10;59.10;;;;;;8350653;28;20269;-76
2023/06/15 16:58:19;;;;;;;;;;;23.70;59.30;;;;;;8331628;28;20336;-76
2023/06/15 17:02:21;;;;;;;;;;;23.70;63.40;;;;;;8355661;28;19943;-78
2023/06/15 17:06:21;;;;;;;;;;;23.40;61.00;;;;;;8332558;28;19948;-78
2023/06/15 17:10:22;;;;;;;;;;;23.10;60.60;;;;;;8356916;28;19916;-77
2023/06/15 17:14:23;;;;;;;;;;;23.10;62.70;;;;;;8335533;28;19916;-76
2023/06/15 17:18:24;;;;;;;;;;;22.80;62.30;;;;;;8356722;28;20405;-77
2023/06/15 17:22:27;;;;;;;;;;;22.80;62.50;;;;;;8333569;28;19974;-77
2023/06/15 17:26:28;;;;;;;;;;;22.80;63.30;;;;;;8332960;28;20011;-77
2023/06/15 17:30:28;;;;;;;;;;;22.60;62.50;;;;;;8348699;28;19986;-76
2023/06/15 17:34:31;;;;;;;;;;;22.60;62.90;;;;;;8346959;28;20022;-77
2023/06/15 17:38:31;;;;;;;;;;;22.70;64.30;;;;;;8325033;28;20011;-77
2023/06/15 17:42:33;;;;;;;;;;;22.70;64.80;;;;;;8325829;28;22564;-76
2023/06/15 17:46:34;;;;;;;;;;;22.50;65.90;;;;;;8338463;28;20343;-77
2023/06/15 17:50:34;;;;;;;;;;;22.60;65.70;;;;;;8341753;28;20939;-77
2023/06/15 17:54:35;;;;;;;;;;;22.60;63.20;;;;;;8344720;28;19925;-77
2023/06/15 17:58:35;;;;;;;;;;;22.40;65.50;;;;;;8340812;28;20384;-77
2023/06/15 18:02:36;;;;;;;;;;;22.40;67.20;;;;;;8332865;28;19917;-77
2023/06/15 18:06:37;;;;;;;;;;;21.90;65.50;;;;;;8334215;28;20012;-77
2023/06/15 18:10:38;;;;;;;;;;;21.80;67.60;;;;;;8318928;28;19919;-76
2023/06/15 18:14:38;;;;;;;;;;;21.50;68.80;;;;;;8327517;28;19917;-78
2023/06/15 18:18:39;;;;;;;;;;;21.40;69.10;;;;;;8341771;28;19978;-79
2023/06/15 18:22:40;;;;;;;;;;;21.00;71.40;;;;;;8338606;28;20003;-78
2023/06/15 18:26:43;;;;;;;;;;;20.60;72.20;;;;;;8328949;28;20614;-78
2023/06/15 18:30:43;;;;;;;;;;;20.00;75.40;;;;;;8353933;28;20415;-78
2023/06/15 18:34:48;;;;;;;;;;;20.00;78.00;;;;;;8313491;28;19917;-77
2023/06/15 18:38:48;;;;;;;;;;;19.40;78.60;;;;;;8323495;28;20344;-78
2023/06/15 18:42:49;;;;;;;;;;;19.40;80.10;;;;;;8324918;28;20011;-78
2023/06/15 18:46:49;;;;;;;;;;;18.90;81.00;;;;;;8318357;28;19945;-77
2023/06/15 18:50:50;;;;;;;;;;;18.50;81.00;;;;;;8325603;28;19913;-77
2023/06/15 18:54:51;;;;;;;;;;;18.40;83.20;;;;;;8334138;28;19917;-77
2023/06/15 18:58:51;;;;;;;;;;;18.30;85.20;;;;;;8320416;28;20021;-77
2023/06/15 19:02:52;;;;;;;;;;;18.20;86.30;;;;;;8342258;28;20407;-78
2023/06/15 19:06:52;;;;;;;;;;;17.80;89.80;;;;;;8335731;28;19920;-77
2023/06/15 19:10:55;;;;;;;;;;;17.40;90.20;;;;;;8346349;28;19913;-77
2023/06/15 19:14:55;;;;;;;;;;;17.30;90.00;;;;;;8319445;28;19948;-78
2023/06/15 19:18:56;;;;;;;;;;;16.80;91.00;;;;;;8326793;28;19916;-77
2023/06/15 19:22:58;;;;;;;;;;;16.50;92.20;;;;;;8334314;28;20004;-77
2023/06/15 19:26:59;;;;;;;;;;;16.40;93.90;;;;;;8331785;28;20397;-78
2023/06/15 19:30:59;;;;;;;;;;;16.50;93.80;;;;;;8328913;28;19921;-78
2023/06/15 19:35:00;;;;;;;;;;;16.40;93.90;;;;;;8336496;28;21367;-77
2023/06/15 19:39:01;;;;;;;;;;;16.30;94.70;;;;;;8329180;28;19921;-77
2023/06/15 19:43:01;;;;;;;;;;;16.10;95.50;;;;;;8343091;28;19921;-77
2023/06/15 19:47:03;;;;;;;;;;;15.90;96.80;;;;;;8329956;28;19946;-77
2023/06/15 19:51:03;;;;;;;;;;;15.70;98.30;;;;;;8346720;28;20635;-77
2023/06/15 19:55:04;;;;;;;;;;;15.50;99.20;;;;;;8333116;28;20369;-77
2023/06/15 19:59:04;;;;;;;;;;;15.40;99.90;;;;;;8338492;28;20373;-76
2023/06/15 20:03:05;;;;;;;;;;;15.20;99.90;;;;;;8351860;28;20308;-77
2023/06/15 20:07:06;;;;;;;;;;;15.10;99.90;;;;;;8335777;28;20332;-77
2023/06/15 20:11:07;;;;;;;;;;;14.80;99.90;;;;;;8351253;28;20327;-78
2023/06/15 20:15:08;;;;;;;;;;;14.60;99.90;;;;;;8350001;28;19980;-78
2023/06/15 20:19:08;;;;;;;;;;;14.50;99.90;;;;;;8339538;28;20308;-78
2023/06/15 20:23:09;;;;;;;;;;;14.40;99.90;;;;;;8330190;28;19909;-78
2023/06/15 20:27:10;;;;;;;;;;;14.30;99.90;;;;;;8339337;28;19955;-77
2023/06/15 20:31:11;;;;;;;;;;;14.10;99.90;;;;;;8353025;28;19917;-78
2023/06/15 20:35:11;;;;;;;;;;;13.80;99.90;;;;;;8332366;28;20474;-78
2023/06/15 20:39:12;;;;;;;;;;;14.10;99.90;;;;;;8338437;28;19982;-79
2023/06/15 20:43:12;;;;;;;;;;;14.00;99.90;;;;;;8321583;28;19920;-78
2023/06/15 20:47:13;;;;;;;;;;;14.00;99.90;;;;;;8333064;28;19920;-77
2023/06/15 20:51:13;;;;;;;;;;;13.80;99.90;;;;;;8335402;28;19917;-77
2023/06/15 20:55:14;;;;;;;;;;;13.20;99.90;;;;;;8346947;28;19967;-78
2023/06/15 20:59:14;;;;;;;;;;;13.20;99.90;;;;;;8331035;28;19912;-78
2023/06/15 21:03:15;;;;;;;;;;;13.60;99.90;;;;;;8354965;28;19912;-77
2023/06/15 21:07:15;;;;;;;;;;;13.70;99.90;;;;;;8342339;28;19912;-78
2023/06/15 21:11:16;;;;;;;;;;;13.40;99.90;;;;;;8336585;28;19912;-78
2023/06/15 21:15:16;;;;;;;;;;;12.90;99.90;;;;;;8349109;28;19924;-78
2023/06/15 21:19:17;;;;;;;;;;;13.10;99.90;;;;;;8331927;28;19912;-78
2023/06/15 21:23:17;;;;;;;;;;;12.90;99.90;;;;;;8329764;28;19917;-78
2023/06/15 21:27:18;;;;;;;;;;;12.40;99.90;;;;;;8347981;28;19913;-78
2023/06/15 21:31:18;;;;;;;;;;;12.30;99.90;;;;;;8350504;28;19946;-77
2023/06/15 21:35:22;;;;;;;;;;;12.20;99.90;;;;;;8328339;28;20006;-77
2023/06/15 21:39:23;;;;;;;;;;;12.50;99.90;;;;;;8333494;28;19916;-78
2023/06/15 21:43:23;;;;;;;;;;;12.70;99.90;;;;;;8324144;28;20003;-78
2023/06/15 21:47:25;;;;;;;;;;;12.90;99.90;;;;;;8336070;28;19962;-78
2023/06/15 21:51:27;;;;;;;;;;;13.00;99.90;;;;;;8329918;28;19970;-77
2023/06/15 21:55:28;;;;;;;;;;;13.00;99.90;;;;;;8333610;28;19992;-77
2023/06/15 21:59:28;;;;;;;;;;;12.90;99.90;;;;;;8347082;28;20381;-78
2023/06/15 22:03:29;;;;;;;;;;;13.00;99.90;;;;;;8334615;28;19916;-78
2023/06/15 22:07:29;;;;;;;;;;;13.10;99.90;;;;;;8334231;28;19920;-79
2023/06/15 22:11:30;;;;;;;;;;;13.20;99.90;;;;;;8330194;28;19913;-78
2023/06/15 22:15:30;;;;;;;;;;;12.90;99.90;;;;;;8321670;28;19927;-78
2023/06/15 22:19:31;;;;;;;;;;;13.60;99.90;;;;;;8323646;28;19913;-78
2023/06/15 22:23:32;;;;;;;;;;;13.60;99.90;;;;;;8329542;28;19963;-77
2023/06/15 22:27:33;;;;;;;;;;;13.60;99.90;;;;;;8346155;28;19967;-78
2023/06/15 22:31:34;;;;;;;;;;;13.00;99.90;;;;;;8341687;28;19923;-77
2023/06/15 22:35:35;;;;;;;;;;;12.90;99.90;;;;;;8328252;28;20292;-77
2023/06/15 22:39:38;;;;;;;;;;;13.30;99.90;;;;;;8343786;28;19920;-78
2023/06/15 22:43:39;;;;;;;;;;;13.10;99.90;;;;;;8354321;28;19964;-77
2023/06/15 22:47:40;;;;;;;;;;;13.00;99.90;;;;;;8312578;28;19956;-77
2023/06/15 22:51:45;;;;;;;;;;;13.30;99.90;;;;;;8349577;28;19920;-77
2023/06/15 22:55:46;;;;;;;;;;;13.30;99.90;;;;;;8325488;28;20411;-78
2023/06/15 22:59:46;;;;;;;;;;;12.80;99.90;;;;;;8334010;28;19959;-78
2023/06/15 23:03:46;;;;;;;;;;;12.90;99.90;;;;;;8338170;28;19917;-78
2023/06/15 23:07:48;;;;;;;;;;;12.80;99.90;;;;;;8330645;28;20047;-77
2023/06/15 23:11:50;;;;;;;;;;;12.90;99.90;;;;;;8324804;28;19982;-77
2023/06/15 23:15:55;;;;;;;;;;;13.10;99.90;;;;;;8348258;28;20012;-77
2023/06/15 23:19:56;;;;;;;;;;;13.10;99.90;;;;;;8352122;28;19923;-79
2023/06/15 23:23:58;;;;;;;;;;;12.50;99.90;;;;;;8351343;28;19955;-77
2023/06/15 23:27:59;;;;;;;;;;;12.50;99.90;;;;;;8334460;28;20382;-79